createdAt,value
2019-05-23T00:01:20.263Z,2.42
2019-05-23T00:03:55.158Z,2.45
2019-05-23T00:06:27.911Z,1.80
2019-05-23T00:08:59.969Z,1.65
2019-05-23T00:11:47.252Z,2.45
2019-05-23T00:14:37.895Z,2.35
2019-05-23T00:17:11.394Z,1.98
2019-05-23T00:19:42.012Z,2.40
2019-05-23T00:22:12.924Z,2.40
2019-05-23T00:24:45.727Z,2.20
2019-05-23T00:27:17.161Z,1.92
2019-05-23T00:29:49.230Z,1.92
2019-05-23T00:32:47.807Z,2.30
2019-05-23T00:35:20.351Z,2.35
2019-05-23T00:37:51.424Z,3.25
2019-05-23T00:40:23.051Z,3.30
2019-05-23T00:42:53.689Z,3.05
2019-05-23T00:45:26.070Z,2.72
2019-05-23T00:47:57.869Z,2.85
2019-05-23T00:50:29.980Z,3.17
2019-05-23T00:53:00.639Z,2.87
2019-05-23T00:55:31.764Z,3.17
2019-05-23T00:58:02.283Z,2.92
2019-05-23T01:00:35.260Z,3.00
2019-05-23T01:03:06.992Z,2.52
2019-05-23T01:05:39.958Z,2.60
2019-05-23T01:08:11.972Z,2.75
2019-05-23T01:10:42.633Z,2.72
2019-05-23T01:13:14.430Z,2.62
2019-05-23T01:15:45.859Z,2.95
2019-05-23T01:18:16.253Z,2.75
2019-05-23T01:21:04.185Z,2.20
2019-05-23T01:23:38.506Z,2.50
2019-05-23T01:26:10.323Z,2.67
2019-05-23T01:28:40.875Z,2.47
2019-05-23T01:31:15.258Z,2.55
2019-05-23T01:33:45.646Z,2.83
2019-05-23T01:36:16.727Z,2.77
2019-05-23T01:38:47.253Z,3.10
2019-05-23T01:41:18.677Z,2.95
2019-05-23T01:43:50.208Z,2.65
2019-05-23T01:46:21.263Z,2.08
2019-05-23T01:48:51.785Z,2.40
2019-05-23T01:51:22.787Z,2.52
2019-05-23T01:53:55.058Z,2.70
2019-05-23T01:56:25.581Z,2.30
2019-05-23T01:58:56.884Z,2.15
2019-05-23T02:01:27.395Z,2.83
2019-05-23T02:03:58.445Z,2.20
2019-05-23T02:06:29.557Z,2.90
2019-05-23T02:09:01.522Z,2.02
2019-05-23T02:11:31.896Z,2.30
2019-05-23T02:14:02.322Z,2.17
2019-05-23T02:16:33.088Z,2.40
2019-05-23T02:19:04.433Z,2.52
2019-05-23T02:21:35.617Z,2.47
2019-05-23T02:24:07.563Z,2.85
2019-05-23T02:26:39.066Z,2.80
2019-05-23T02:29:10.690Z,2.95
2019-05-23T02:31:42.223Z,3.77
2019-05-23T02:34:13.844Z,3.58
2019-05-23T02:36:44.388Z,1.72
2019-05-23T02:39:31.871Z,2.95
2019-05-23T02:42:11.037Z,3.62
2019-05-23T02:44:41.942Z,3.45
2019-05-23T02:47:38.940Z,2.35
2019-05-23T02:50:14.948Z,2.25
2019-05-23T02:52:49.428Z,2.87
2019-05-23T02:55:32.747Z,3.35
2019-05-23T02:58:25.878Z,3.62
2019-05-23T03:01:30.269Z,2.95
2019-05-23T03:04:06.059Z,3.52
2019-05-23T03:06:38.094Z,2.87
2019-05-23T03:09:11.318Z,2.37
2019-05-23T03:11:47.312Z,2.90
2019-05-23T03:14:19.347Z,2.15
2019-05-23T03:16:53.277Z,3.27
2019-05-23T03:19:44.876Z,3.05
2019-05-23T03:22:37.171Z,2.58
2019-05-23T03:25:31.493Z,3.27
2019-05-23T03:28:05.504Z,2.75
2019-05-23T03:30:37.992Z,2.58
2019-05-23T03:33:10.215Z,2.20
2019-05-23T03:35:42.582Z,2.80
2019-05-23T03:38:13.699Z,3.58
2019-05-23T03:40:44.191Z,2.95
2019-05-23T03:43:14.615Z,3.60
2019-05-23T03:45:55.938Z,3.47
2019-05-23T03:48:27.951Z,2.83
2019-05-23T03:50:59.741Z,2.72
2019-05-23T03:53:31.968Z,2.90
2019-05-23T03:56:04.170Z,3.25
2019-05-23T03:58:34.639Z,2.65
2019-05-23T04:01:09.619Z,3.20
2019-05-23T04:03:42.581Z,2.42
2019-05-23T04:06:14.114Z,3.10
2019-05-23T04:08:44.542Z,3.37
2019-05-23T04:11:17.639Z,3.35
2019-05-23T04:13:48.173Z,2.40
2019-05-23T04:16:19.398Z,2.52
2019-05-23T04:18:49.891Z,3.02
2019-05-23T04:21:23.828Z,2.87
2019-05-23T04:23:56.060Z,2.05
2019-05-23T04:26:27.099Z,3.60
2019-05-23T04:28:58.287Z,3.55
2019-05-23T04:31:28.724Z,2.83
2019-05-23T04:33:59.399Z,2.77
2019-05-23T04:36:30.374Z,3.15
2019-05-23T04:39:01.147Z,3.35
2019-05-23T04:41:32.098Z,2.95
2019-05-23T04:44:02.443Z,3.25
2019-05-23T04:46:32.843Z,3.30
2019-05-23T04:49:04.290Z,3.33
2019-05-23T04:51:34.711Z,3.05
2019-05-23T04:54:05.523Z,4.12
2019-05-23T04:56:35.845Z,4.28
2019-05-23T04:59:07.066Z,3.67
2019-05-23T05:01:38.546Z,3.27
2019-05-23T05:04:09.647Z,3.98
2019-05-23T05:06:40.981Z,3.83
2019-05-23T05:09:16.336Z,3.55
2019-05-23T05:11:46.685Z,3.52
2019-05-23T05:14:17.001Z,3.95
2019-05-23T05:16:47.375Z,3.83
2019-05-23T05:19:18.195Z,3.67
2019-05-23T05:21:48.659Z,4.53
2019-05-23T05:24:19.026Z,4.03
2019-05-23T05:26:50.443Z,3.75
2019-05-23T05:29:20.838Z,4.50
2019-05-23T05:31:51.393Z,3.37
2019-05-23T05:34:21.713Z,3.50
2019-05-23T05:36:52.409Z,4.80
2019-05-23T05:39:23.620Z,4.03
2019-05-23T05:41:54.728Z,4.28
2019-05-23T05:44:25.329Z,3.70
2019-05-23T05:46:55.794Z,3.95
2019-05-23T05:49:26.922Z,4.28
2019-05-23T05:51:57.320Z,3.83
2019-05-23T05:54:27.678Z,4.08
2019-05-23T05:56:58.635Z,3.87
2019-05-23T05:59:29.933Z,4.92
2019-05-23T06:02:00.595Z,5.17
2019-05-23T06:04:31.052Z,5.03
2019-05-23T06:07:27.374Z,4.85
2019-05-23T06:09:59.199Z,5.72
2019-05-23T06:12:30.146Z,6.05
2019-05-23T06:15:00.522Z,5.33
2019-05-23T06:17:31.287Z,4.85
2019-05-23T06:20:01.874Z,5.47
2019-05-23T06:22:33.968Z,5.87
2019-05-23T06:25:06.308Z,7.53
2019-05-23T06:27:37.670Z,5.53
2019-05-23T06:30:10.626Z,7.42
2019-05-23T06:32:41.318Z,7.25
2019-05-23T06:35:12.441Z,6.85
2019-05-23T06:37:43.079Z,6.25
2019-05-23T06:40:15.054Z,6.62
2019-05-23T06:42:45.539Z,6.87
2019-05-23T06:45:16.725Z,6.35
2019-05-23T06:47:47.052Z,5.37
2019-05-23T06:50:19.414Z,4.78
2019-05-23T06:52:49.751Z,5.53
2019-05-23T06:55:20.076Z,5.83
2019-05-23T06:57:50.428Z,5.67
2019-05-23T07:00:25.014Z,5.67
2019-05-23T07:02:55.427Z,5.30
2019-05-23T07:05:33.100Z,4.25
2019-05-23T07:08:04.242Z,4.60
2019-05-23T07:10:34.751Z,3.85
2019-05-23T07:13:05.548Z,3.35
2019-05-23T07:15:36.131Z,3.65
2019-05-23T07:18:07.393Z,2.70
2019-05-23T07:20:38.370Z,3.02
2019-05-23T07:23:12.559Z,2.77
2019-05-23T07:25:43.067Z,3.37
2019-05-23T07:28:13.428Z,2.35
2019-05-23T07:30:43.854Z,2.25
2019-05-23T07:33:15.746Z,2.00
2019-05-23T07:35:46.174Z,0.93
2019-05-23T07:38:16.843Z,2.30
2019-05-23T07:40:48.220Z,1.42
2019-05-23T07:43:18.939Z,1.20
2019-05-23T07:45:54.358Z,1.27
2019-05-23T07:48:25.298Z,1.47
2019-05-23T07:50:56.068Z,1.72
2019-05-23T07:53:47.286Z,1.42
2019-05-23T07:56:20.146Z,1.02
2019-05-23T07:58:51.325Z,1.40
2019-05-23T08:01:24.120Z,1.00
2019-05-23T08:03:55.304Z,1.87
2019-05-23T08:06:25.820Z,1.60
2019-05-23T08:08:56.228Z,0.93
2019-05-23T08:11:26.821Z,0.40
2019-05-23T08:13:58.072Z,0.72
2019-05-23T08:16:28.659Z,0.72
2019-05-23T08:18:59.963Z,0.40
2019-05-23T08:21:30.402Z,0.40
2019-05-23T08:24:00.722Z,0.40
2019-05-23T08:26:33.110Z,0.25
2019-05-23T08:29:24.869Z,0.82
2019-05-23T08:31:35.866Z,0.20
2019-05-23T08:34:07.606Z,0.20
2019-05-23T08:36:38.524Z,0.30
2019-05-23T08:39:10.677Z,0.72
2019-05-23T08:41:41.628Z,0.30
2019-05-23T08:44:12.083Z,0.40
2019-05-23T08:46:42.581Z,0.20
2019-05-23T08:49:13.545Z,0.20
2019-05-23T08:51:43.946Z,0.20
2019-05-23T08:54:14.464Z,0.30
2019-05-23T08:56:45.466Z,0.20
2019-05-23T08:59:16.094Z,0.20
2019-05-23T09:01:46.625Z,0.53
2019-05-23T09:04:18.022Z,0.30
2019-05-23T09:06:48.951Z,0.35
2019-05-23T09:09:29.578Z,0.47
2019-05-23T09:11:52.310Z,0.68
2019-05-23T09:14:23.331Z,0.50
2019-05-23T09:16:53.961Z,0.42
2019-05-23T09:19:24.632Z,0.60
2019-05-23T09:21:58.013Z,0.70
2019-05-23T09:24:27.592Z,0.40
2019-05-23T09:26:58.143Z,0.78
2019-05-23T09:29:28.796Z,1.05
2019-05-23T09:31:59.135Z,0.57
2019-05-23T09:34:30.056Z,0.37
2019-05-23T09:37:00.812Z,0.50
2019-05-23T09:39:32.770Z,0.40
2019-05-23T09:42:03.103Z,0.40
2019-05-23T09:44:33.524Z,0.60
2019-05-23T09:47:04.177Z,0.60
2019-05-23T09:49:34.503Z,0.28
2019-05-23T09:52:05.745Z,1.27
2019-05-23T09:54:36.250Z,0.37
2019-05-23T09:57:07.406Z,0.60
2019-05-23T09:59:37.749Z,0.40
2019-05-23T10:02:09.799Z,0.53
2019-05-23T10:04:40.113Z,0.35
2019-05-23T10:07:10.673Z,1.05
2019-05-23T10:09:42.353Z,0.47
2019-05-23T10:12:12.750Z,0.78
2019-05-23T10:14:43.163Z,0.90
2019-05-23T10:17:13.583Z,0.82
2019-05-23T10:19:44.086Z,1.12
2019-05-23T10:22:14.869Z,0.65
2019-05-23T10:24:45.324Z,1.07
2019-05-23T10:27:15.921Z,1.22
2019-05-23T10:29:46.261Z,1.27
2019-05-23T10:32:16.729Z,0.98
2019-05-23T10:34:47.076Z,0.68
2019-05-23T10:37:18.351Z,0.50
2019-05-23T10:39:54.187Z,1.02
2019-05-23T10:42:28.184Z,1.10
2019-05-23T10:44:58.665Z,1.07
2019-05-23T10:47:29.043Z,0.93
2019-05-23T10:49:59.367Z,1.30
2019-05-23T10:52:29.870Z,1.10
2019-05-23T10:55:00.441Z,0.95
2019-05-23T10:57:30.852Z,1.15
2019-05-23T11:00:01.293Z,1.82
2019-05-23T11:02:31.885Z,1.60
2019-05-23T11:05:12.015Z,1.47
2019-05-23T11:07:36.203Z,1.42
2019-05-23T11:10:06.933Z,1.60
2019-05-23T11:12:37.258Z,1.22
2019-05-23T11:15:07.759Z,1.70
2019-05-23T11:17:38.271Z,1.37
2019-05-23T11:20:09.101Z,1.12
2019-05-23T11:22:39.480Z,1.82
2019-05-23T11:25:11.771Z,1.87
2019-05-23T11:27:42.458Z,2.62
2019-05-23T11:30:19.639Z,3.12
2019-05-23T11:32:49.968Z,1.75
2019-05-23T11:35:20.389Z,1.52
2019-05-23T11:37:51.841Z,0.95
2019-05-23T11:40:22.297Z,0.80
2019-05-23T11:42:53.090Z,0.72
2019-05-23T11:45:25.262Z,0.93
2019-05-23T11:47:55.597Z,0.60
2019-05-23T11:50:26.104Z,0.72
2019-05-23T11:52:56.434Z,1.67
2019-05-23T11:55:26.784Z,1.20
2019-05-23T11:57:57.264Z,0.98
2019-05-23T12:01:18.204Z,0.90
2019-05-23T12:03:43.323Z,0.62
2019-05-23T12:06:13.748Z,1.47
2019-05-23T12:08:45.139Z,1.32
2019-05-23T12:11:16.127Z,1.12
2019-05-23T12:13:46.513Z,1.00
2019-05-23T12:16:17.405Z,0.78
2019-05-23T12:18:47.853Z,0.88
2019-05-23T12:21:18.640Z,0.50
2019-05-23T12:23:49.024Z,1.10
2019-05-23T12:26:19.466Z,0.80
2019-05-23T12:28:49.959Z,0.45
2019-05-23T12:31:20.396Z,0.70
2019-05-23T12:33:50.725Z,0.50
2019-05-23T12:36:21.141Z,1.00
2019-05-23T12:38:51.483Z,0.82
2019-05-23T12:41:21.803Z,1.15
2019-05-23T12:43:52.645Z,0.70
2019-05-23T12:46:23.068Z,1.55
2019-05-23T12:48:59.922Z,0.88
2019-05-23T12:51:33.126Z,0.50
2019-05-23T12:54:03.526Z,0.80
2019-05-23T12:56:33.918Z,1.00
2019-05-23T12:59:05.326Z,1.52
2019-05-23T13:01:37.987Z,0.42
2019-05-23T13:04:10.337Z,0.37
2019-05-23T13:06:46.005Z,0.78
2019-05-23T13:09:16.412Z,0.55
2019-05-23T13:11:46.779Z,0.40
2019-05-23T13:14:17.204Z,1.17
2019-05-23T13:16:47.627Z,1.30
2019-05-23T13:19:19.100Z,0.70
2019-05-23T13:21:49.508Z,0.60
2019-05-23T13:24:19.959Z,0.40
2019-05-23T13:26:50.925Z,0.53
2019-05-23T13:29:24.233Z,0.35
2019-05-23T13:31:53.798Z,0.30
2019-05-23T13:34:24.668Z,0.30
2019-05-23T13:36:55.381Z,0.70
2019-05-23T13:39:25.738Z,0.50
2019-05-23T13:41:56.080Z,0.50
2019-05-23T13:44:33.673Z,0.50
2019-05-23T13:46:59.131Z,0.90
2019-05-23T13:49:29.590Z,0.98
2019-05-23T13:52:00.050Z,0.70
2019-05-23T13:54:36.192Z,1.25
2019-05-23T13:57:06.289Z,0.53
2019-05-23T13:59:37.348Z,0.35
2019-05-23T14:02:08.995Z,1.07
2019-05-23T14:04:39.523Z,0.85
2019-05-23T14:07:12.091Z,0.80
2019-05-23T14:09:42.474Z,1.12
2019-05-23T14:12:21.618Z,0.62
2019-05-23T14:14:45.302Z,0.50
2019-05-23T14:17:35.448Z,0.82
2019-05-23T14:20:06.353Z,0.35
2019-05-23T14:22:41.844Z,1.60
2019-05-23T14:25:12.483Z,1.00
2019-05-23T14:27:51.867Z,0.82
2019-05-23T14:30:37.826Z,1.30
2019-05-23T14:33:13.965Z,0.80
2019-05-23T14:35:44.816Z,1.25
2019-05-23T14:38:29.529Z,0.65
2019-05-23T14:40:47.591Z,0.80
2019-05-23T14:43:22.207Z,1.30
2019-05-23T14:45:57.795Z,1.20
2019-05-23T14:48:41.390Z,0.60
2019-05-23T14:51:19.716Z,1.10
2019-05-23T14:53:53.864Z,0.90
2019-05-23T14:56:24.722Z,1.30
2019-05-23T14:58:55.124Z,1.10
2019-05-23T15:01:27.200Z,0.50
2019-05-23T15:03:57.677Z,1.32
2019-05-23T15:06:28.631Z,1.20
2019-05-23T15:08:59.103Z,0.60
2019-05-23T15:11:29.847Z,0.60
2019-05-23T15:14:00.327Z,0.45
2019-05-23T15:16:30.813Z,0.82
2019-05-23T15:19:01.248Z,0.75
2019-05-23T15:21:31.645Z,0.80
2019-05-23T15:24:02.084Z,1.17
2019-05-23T15:26:32.456Z,0.80
2019-05-23T15:29:02.789Z,1.00
2019-05-23T15:31:33.235Z,0.53
2019-05-23T15:34:03.651Z,0.30
2019-05-23T15:36:34.307Z,0.50
2019-05-23T15:39:09.864Z,0.40
2019-05-23T15:41:39.594Z,0.35
2019-05-23T15:44:24.095Z,0.80
2019-05-23T15:46:42.168Z,0.20
2019-05-23T15:49:14.449Z,0.53
2019-05-23T15:52:00.485Z,0.20
2019-05-23T15:54:48.962Z,0.57
2019-05-23T15:57:23.506Z,0.30
2019-05-23T16:00:06.879Z,0.45
2019-05-23T16:02:54.054Z,0.20
2019-05-23T16:05:24.466Z,0.33
2019-05-23T16:07:55.139Z,0.25
2019-05-23T16:10:26.345Z,0.17
2019-05-23T16:12:56.700Z,0.20
2019-05-23T16:15:27.339Z,0.40
2019-05-23T16:17:57.725Z,0.60
2019-05-23T16:20:28.922Z,0.30
2019-05-23T16:22:59.292Z,0.30
2019-05-23T16:25:29.676Z,0.20
2019-05-23T16:28:00.156Z,0.13
2019-05-23T16:30:30.530Z,0.20
2019-05-23T16:33:01.001Z,0.30
2019-05-23T16:35:31.358Z,0.40
2019-05-23T16:38:01.946Z,0.10
2019-05-23T16:40:32.564Z,0.10
2019-05-23T16:43:04.291Z,0.20
2019-05-23T16:45:34.643Z,0.40
2019-05-23T16:48:06.476Z,0.30
2019-05-23T16:50:37.239Z,0.25
2019-05-23T16:53:07.553Z,0.33
2019-05-23T16:55:47.264Z,0.20
2019-05-23T16:58:26.197Z,0.20
2019-05-23T17:01:04.757Z,0.40
2019-05-23T17:03:52.852Z,0.50
2019-05-23T17:06:39.488Z,0.40
2019-05-23T17:09:24.503Z,0.20
2019-05-23T17:12:23.013Z,0.40
2019-05-23T17:15:12.272Z,0.50
2019-05-23T17:18:10.836Z,0.23
2019-05-23T17:21:03.201Z,0.20
2019-05-23T17:23:52.098Z,0.25
2019-05-23T17:26:32.224Z,0.30
2019-05-23T17:29:05.432Z,0.30
2019-05-23T17:31:38.209Z,0.50
2019-05-23T17:34:08.625Z,0.40
2019-05-23T17:36:39.086Z,0.10
2019-05-23T17:39:11.787Z,0.20
2019-05-23T17:41:42.110Z,0.10
2019-05-23T17:44:12.458Z,0.10
2019-05-23T17:46:42.817Z,0.40
2019-05-23T17:49:13.254Z,0.28
2019-05-23T17:51:43.690Z,0.23
2019-05-23T17:54:14.808Z,0.62
2019-05-23T17:56:45.119Z,0.30
2019-05-23T17:59:15.457Z,0.20
2019-05-23T18:01:47.363Z,0.20
2019-05-23T18:04:17.968Z,0.20
2019-05-23T18:06:48.711Z,0.30
2019-05-23T18:09:19.276Z,0.30
2019-05-23T18:11:49.653Z,0.30
2019-05-23T18:14:20.683Z,0.35
2019-05-23T18:16:51.801Z,0.13
2019-05-23T18:19:23.288Z,0.10
2019-05-23T18:21:54.110Z,0.20
2019-05-23T18:24:24.604Z,0.20
2019-05-23T18:26:54.998Z,0.33
2019-05-23T18:29:25.632Z,0.30
2019-05-23T18:31:56.137Z,0.30
2019-05-23T18:34:26.842Z,0.37
2019-05-23T18:36:57.660Z,0.23
2019-05-23T18:39:29.576Z,0.20
2019-05-23T18:42:00.063Z,0.60
2019-05-23T18:44:30.516Z,0.82
2019-05-23T18:47:02.512Z,1.47
2019-05-23T18:49:33.702Z,1.98
2019-05-23T18:52:04.182Z,1.25
2019-05-23T18:54:34.506Z,1.50
2019-05-23T18:57:04.940Z,1.70
2019-05-23T18:59:36.156Z,1.85
2019-05-23T19:02:06.812Z,2.58
2019-05-23T19:04:37.362Z,2.83
2019-05-23T19:07:07.894Z,2.52
2019-05-23T19:09:38.582Z,2.98
2019-05-23T19:12:09.083Z,3.17
2019-05-23T19:14:39.437Z,3.55
2019-05-23T19:17:09.933Z,4.05
2019-05-23T19:19:40.683Z,3.20
2019-05-23T19:22:11.025Z,2.27
2019-05-23T19:24:41.481Z,2.47
2019-05-23T19:27:14.377Z,2.47
2019-05-23T19:29:44.533Z,2.37
2019-05-23T19:32:15.573Z,2.72
2019-05-23T19:34:46.038Z,2.05
2019-05-23T19:37:16.840Z,2.55
2019-05-23T19:39:47.266Z,1.35
2019-05-23T19:42:17.587Z,1.85
2019-05-23T19:44:47.944Z,1.62
2019-05-23T19:47:18.591Z,1.30
2019-05-23T19:49:48.922Z,2.37
2019-05-23T19:52:19.958Z,1.30
2019-05-23T19:54:50.397Z,2.95
2019-05-23T19:57:20.733Z,2.27
2019-05-23T19:59:51.303Z,1.87
2019-05-23T20:02:41.788Z,1.70
2019-05-23T20:05:31.272Z,2.10
2019-05-23T20:08:01.766Z,2.12
2019-05-23T20:10:33.575Z,2.12
2019-05-23T20:13:03.980Z,2.35
2019-05-23T20:15:34.451Z,2.25
2019-05-23T20:18:06.784Z,2.22
2019-05-23T20:20:39.082Z,2.70
2019-05-23T20:23:10.133Z,2.52
2019-05-23T20:25:41.153Z,2.17
2019-05-23T20:28:11.595Z,2.92
2019-05-23T20:31:00.076Z,2.30
2019-05-23T20:33:31.323Z,2.67
2019-05-23T20:36:05.019Z,2.92
2019-05-23T20:38:35.988Z,2.17
2019-05-23T20:41:06.523Z,3.17
2019-05-23T20:43:37.024Z,2.50
2019-05-23T20:46:07.347Z,1.70
2019-05-23T20:48:38.614Z,3.17
2019-05-23T20:51:09.128Z,2.75
2019-05-23T20:53:39.559Z,2.85
2019-05-23T20:56:09.946Z,2.33
2019-05-23T20:58:40.278Z,2.10
2019-05-23T21:01:32.974Z,2.77
2019-05-23T21:04:03.499Z,2.83
2019-05-23T21:06:34.425Z,3.60
2019-05-23T21:09:06.539Z,2.65
2019-05-23T21:11:37.000Z,3.45
2019-05-23T21:14:07.320Z,3.08
2019-05-23T21:16:37.800Z,2.45
2019-05-23T21:19:08.213Z,3.27
2019-05-23T21:21:38.656Z,2.92
2019-05-23T21:24:09.182Z,2.95
2019-05-23T21:26:39.615Z,2.22
2019-05-23T21:29:10.013Z,2.33
2019-05-23T21:31:40.564Z,1.95
2019-05-23T21:34:11.037Z,3.17
2019-05-23T21:36:42.046Z,1.77
2019-05-23T21:39:14.266Z,2.33
2019-05-23T21:41:44.573Z,2.87
2019-05-23T21:44:14.959Z,2.65
2019-05-23T21:46:45.529Z,1.27
2019-05-23T21:49:16.278Z,2.08
2019-05-23T21:51:46.703Z,2.60
2019-05-23T21:54:17.061Z,1.92
2019-05-23T21:56:47.356Z,2.22
2019-05-23T21:59:17.783Z,2.55
2019-05-23T22:01:54.790Z,2.65
2019-05-23T22:04:43.101Z,2.35
2019-05-23T22:07:16.538Z,2.12
2019-05-23T22:09:46.850Z,2.00
2019-05-23T22:12:17.764Z,2.45
2019-05-23T22:14:48.661Z,3.12
2019-05-23T22:17:20.670Z,2.95
2019-05-23T22:19:51.122Z,3.72
2019-05-23T22:22:21.466Z,3.20
2019-05-23T22:24:51.798Z,2.67
2019-05-23T22:27:22.296Z,2.75
2019-05-23T22:29:52.652Z,2.92
2019-05-23T22:32:24.180Z,2.55
2019-05-23T22:35:08.769Z,3.10
2019-05-23T22:37:40.175Z,3.17
2019-05-23T22:40:11.128Z,3.02
2019-05-23T22:42:42.836Z,2.65
2019-05-23T22:45:16.342Z,2.47
2019-05-23T22:47:46.886Z,3.05
2019-05-23T22:50:17.282Z,3.90
2019-05-23T22:52:47.578Z,3.67
2019-05-23T22:55:17.938Z,3.30
2019-05-23T22:57:48.265Z,2.75
2019-05-23T23:00:25.123Z,3.72
2019-05-23T23:02:55.482Z,3.70
2019-05-23T23:05:25.756Z,4.28
2019-05-23T23:07:56.481Z,3.75
2019-05-23T23:10:26.884Z,3.83
2019-05-23T23:12:57.188Z,2.62
2019-05-23T23:15:29.198Z,2.70
2019-05-23T23:17:59.593Z,2.60
2019-05-23T23:20:29.933Z,2.77
2019-05-23T23:23:00.335Z,3.10
2019-05-23T23:25:30.729Z,3.15
2019-05-23T23:28:01.075Z,2.85
2019-05-23T23:30:34.897Z,2.90
2019-05-23T23:33:05.228Z,3.42
2019-05-23T23:35:35.782Z,3.12
2019-05-23T23:38:06.579Z,2.42
2019-05-23T23:40:36.934Z,3.42
2019-05-23T23:43:07.256Z,3.02
2019-05-23T23:45:55.260Z,2.80
2019-05-23T23:48:43.330Z,1.90
2019-05-23T23:51:31.430Z,2.92
2019-05-23T23:54:19.341Z,2.45
2019-05-23T23:57:07.514Z,2.77
2019-05-23T23:59:55.427Z,2.33
